« Back
NWS Peachtree City, Ga » Text Product » MCN Terminal Aerodrome Forecast


Printer-friendly Version
Current Version              Previous Versions:   1  2  3  4  5  6  7  8  9  

Terminal Aerodrome Forecast

567
FTUS42 KFFC 041320 AAA
TAFMCN
TAF AMD
KMCN 041320Z 0413/0512 21005KT 4SM BR BKN007
     FM041500 22010G15KT 6SM BR SCT007 BKN012
     FM041800 22012G17KT P6SM BKN025
     FM050200 21008KT P6SM SCT025 BKN045
     FM050600 20008KT 4SM BR BKN007
     FM051100 21007KT 3SM -SHRA BR OVC005=

USA.gov is the U.S. government's official web portal to all federal, state and local government web resources and services.